Time;durP1;ratioP1;P1;durP2;ratioP2;P2;SDS_P1;SDS_P2;PMS_P1;PMS_P2;Temp;Humidity;BMP_temperature;BMP_pressure;BME280_temperature;BME280_humidity;BME280_pressure;Samples;Min_cycle;Max_cycle;Signal;HPM_P1;HPM_P2
2022/04/03 00:00:50;;;;;;;6.73;6.03;;;;;;;;;;6134363;28;20228;-71
2022/04/03 00:04:11;;;;;;;7.00;6.13;;;;;;;;;;6138563;28;20230;-70
2022/04/03 00:07:33;;;;;;;6.83;6.03;;;;;;;;;;6140894;28;20628;-70
2022/04/03 00:10:55;;;;;;;7.20;5.70;;;;;;;;;;6141190;28;20317;-70
2022/04/03 00:14:15;;;;;;;7.10;6.40;;;;;;;;;;6144697;28;20223;-70
2022/04/03 00:17:36;;;;;;;11.80;7.83;;;;;;;;;;6142611;28;20246;-71
2022/04/03 00:20:57;;;;;;;6.47;5.40;;;;;;;;;;6144377;28;20235;-70
2022/04/03 00:24:20;;;;;;;6.93;5.73;;;;;;;;;;6147777;28;20249;-71
2022/04/03 00:27:40;;;;;;;9.00;6.83;;;;;;;;;;6144101;28;20239;-70
2022/04/03 00:31:01;;;;;;;6.87;5.97;;;;;;;;;;6148052;28;20680;-70
2022/04/03 00:34:23;;;;;;;6.67;5.73;;;;;;;;;;6148744;28;20238;-70
2022/04/03 00:37:43;;;;;;;6.37;5.70;;;;;;;;;;6151812;28;20321;-71
2022/04/03 00:41:08;;;;;;;5.50;4.70;;;;;;;;;;6156044;28;20238;-71
2022/04/03 00:44:29;;;;;;;9.10;6.50;;;;;;;;;;6156147;28;20238;-70
2022/04/03 00:47:52;;;;;;;6.67;6.07;;;;;;;;;;6151625;28;20329;-70
2022/04/03 00:51:13;;;;;;;6.50;5.83;;;;;;;;;;6152801;28;20218;-71
2022/04/03 00:54:33;;;;;;;8.43;5.67;;;;;;;;;;6151729;28;20242;-69
2022/04/03 00:57:57;;;;;;;7.33;5.57;;;;;;;;;;6153504;28;20234;-69
2022/04/03 01:01:18;;;;;;;5.40;4.90;;;;;;;;;;6146052;28;20816;-71
2022/04/03 01:04:39;;;;;;;7.80;6.40;;;;;;;;;;6136484;28;20230;-70
2022/04/03 01:08:00;;;;;;;7.13;5.10;;;;;;;;;;6151979;28;20222;-71
2022/04/03 01:11:22;;;;;;;9.00;7.40;;;;;;;;;;6150549;28;20250;-71
2022/04/03 01:14:45;;;;;;;5.60;4.90;;;;;;;;;;6145170;28;20238;-70
2022/04/03 01:18:05;;;;;;;5.70;5.20;;;;;;;;;;6155074;28;20234;-70
2022/04/03 01:21:26;;;;;;;5.70;5.10;;;;;;;;;;6147683;28;20231;-70
2022/04/03 01:24:48;;;;;;;5.93;5.37;;;;;;;;;;6149366;28;20675;-70
2022/04/03 01:28:10;;;;;;;6.07;4.93;;;;;;;;;;6153670;28;20309;-70
2022/04/03 01:31:31;;;;;;;6.13;5.53;;;;;;;;;;6144113;28;20508;-70
2022/04/03 01:34:52;;;;;;;6.40;5.83;;;;;;;;;;6138544;28;21627;-71
2022/04/03 01:38:13;;;;;;;6.33;5.70;;;;;;;;;;6142944;28;20230;-70
2022/04/03 01:41:34;;;;;;;6.70;5.47;;;;;;;;;;6135985;28;20234;-71
2022/04/03 01:44:56;;;;;;;9.03;6.57;;;;;;;;;;6139849;28;20250;-70
2022/04/03 01:48:18;;;;;;;5.83;4.77;;;;;;;;;;6142816;28;20238;-71
2022/04/03 01:51:39;;;;;;;7.30;5.77;;;;;;;;;;6143916;28;20271;-71
2022/04/03 01:55:02;;;;;;;7.13;6.43;;;;;;;;;;6139125;28;20235;-70
2022/04/03 01:58:23;;;;;;;7.90;6.13;;;;;;;;;;6136743;28;20500;-71
2022/04/03 02:01:46;;;;;;;7.10;5.63;;;;;;;;;;6137157;28;21233;-72
2022/04/03 02:05:08;;;;;;;8.63;6.23;;;;;;;;;;6112888;28;20239;-71
2022/04/03 02:08:28;;;;;;;6.90;6.13;;;;;;;;;;6139012;28;20267;-70
2022/04/03 02:11:49;;;;;;;11.00;5.40;;;;;;;;;;6135677;28;20231;-70
2022/04/03 02:15:11;;;;;;;6.13;5.53;;;;;;;;;;6138682;28;20226;-72
2022/04/03 02:18:34;;;;;;;6.90;5.87;;;;;;;;;;6140295;28;20504;-70
2022/04/03 02:21:55;;;;;;;8.33;5.83;;;;;;;;;;6139798;28;20238;-71
2022/04/03 02:25:16;;;;;;;6.80;6.03;;;;;;;;;;6145158;28;20234;-72
2022/04/03 02:28:39;;;;;;;6.37;5.77;;;;;;;;;;6142331;28;20258;-71
2022/04/03 02:31:59;;;;;;;6.20;5.60;;;;;;;;;;6140351;28;20235;-71
2022/04/03 02:35:22;;;;;;;7.90;5.43;;;;;;;;;;6143970;28;20230;-70
2022/04/03 02:38:43;;;;;;;6.47;5.83;;;;;;;;;;6126166;28;20538;-72
2022/04/03 02:42:04;;;;;;;6.80;5.40;;;;;;;;;;6142830;28;20246;-71
2022/04/03 02:45:26;;;;;;;7.07;6.37;;;;;;;;;;6141094;28;20598;-71
2022/04/03 02:48:47;;;;;;;6.73;5.50;;;;;;;;;;6140271;28;20235;-70
2022/04/03 02:52:09;;;;;;;5.40;4.90;;;;;;;;;;6143676;28;20257;-72
2022/04/03 02:55:30;;;;;;;6.63;4.90;;;;;;;;;;6142690;28;20635;-70
2022/04/03 02:58:51;;;;;;;5.43;4.93;;;;;;;;;;6140713;28;20243;-71
2022/04/03 03:02:12;;;;;;;7.83;5.60;;;;;;;;;;6144593;28;20230;-70
2022/04/03 03:05:33;;;;;;;6.43;5.07;;;;;;;;;;6142998;28;20230;-71
2022/04/03 03:08:55;;;;;;;6.90;4.60;;;;;;;;;;6142792;28;20234;-70
2022/04/03 03:12:17;;;;;;;5.00;4.57;;;;;;;;;;6146496;28;20231;-72
2022/04/03 03:15:38;;;;;;;5.60;4.67;;;;;;;;;;6141783;28;20239;-71
2022/04/03 03:18:59;;;;;;;6.13;4.50;;;;;;;;;;6151739;28;20282;-70
2022/04/03 03:22:20;;;;;;;7.17;4.73;;;;;;;;;;6140074;28;20235;-70
2022/04/03 03:25:43;;;;;;;7.37;5.47;;;;;;;;;;6143993;28;20227;-70
2022/04/03 03:29:03;;;;;;;5.13;4.73;;;;;;;;;;6146197;28;21123;-70
2022/04/03 03:32:24;;;;;;;6.57;5.43;;;;;;;;;;6139704;28;20697;-69
2022/04/03 03:35:45;;;;;;;6.67;5.30;;;;;;;;;;6139023;28;20551;-70
2022/04/03 03:39:06;;;;;;;5.30;4.80;;;;;;;;;;6144487;28;20238;-70
2022/04/03 03:42:28;;;;;;;7.43;6.37;;;;;;;;;;6144782;28;20830;-70
2022/04/03 03:45:50;;;;;;;5.87;4.97;;;;;;;;;;6143488;28;20261;-70
2022/04/03 03:49:10;;;;;;;13.73;6.10;;;;;;;;;;6142812;28;20329;-70
2022/04/03 03:52:32;;;;;;;9.20;5.40;;;;;;;;;;6135833;28;20235;-71
2022/04/03 03:55:53;;;;;;;5.50;4.87;;;;;;;;;;6141262;28;20227;-70
2022/04/03 03:59:15;;;;;;;6.00;5.20;;;;;;;;;;6136048;28;20239;-70
2022/04/03 04:02:36;;;;;;;8.07;5.10;;;;;;;;;;6138792;28;20230;-70
2022/04/03 04:05:57;;;;;;;6.87;5.10;;;;;;;;;;6145955;28;20227;-70
2022/04/03 04:09:18;;;;;;;6.03;5.17;;;;;;;;;;6143643;28;20288;-70
2022/04/03 04:12:39;;;;;;;5.80;4.53;;;;;;;;;;6127353;28;20247;-70
2022/04/03 04:16:01;;;;;;;6.07;4.70;;;;;;;;;;6134942;28;20234;-70
2022/04/03 04:19:22;;;;;;;4.90;3.70;;;;;;;;;;6140113;28;20550;-70
2022/04/03 04:22:44;;;;;;;5.30;4.80;;;;;;;;;;6143471;28;20234;-71
2022/04/03 04:26:06;;;;;;;5.37;4.57;;;;;;;;;;6141652;28;20238;-71
2022/04/03 04:29:27;;;;;;;6.13;4.23;;;;;;;;;;6143037;28;20245;-70
2022/04/03 04:32:49;;;;;;;4.97;4.50;;;;;;;;;;6145246;28;20226;-71
2022/04/03 04:36:10;;;;;;;4.80;4.40;;;;;;;;;;6143294;28;20230;-70
2022/04/03 04:39:31;;;;;;;5.53;4.03;;;;;;;;;;6143911;28;20270;-70
2022/04/03 04:42:52;;;;;;;7.50;4.90;;;;;;;;;;6140960;28;20838;-71
2022/04/03 04:46:12;;;;;;;3.87;3.47;;;;;;;;;;6138325;28;20231;-70
2022/04/03 04:49:35;;;;;;;4.87;4.37;;;;;;;;;;6137080;28;20223;-71
2022/04/03 04:52:56;;;;;;;6.83;5.07;;;;;;;;;;6144126;28;20239;-70
2022/04/03 04:56:16;;;;;;;4.53;4.13;;;;;;;;;;6142514;28;20227;-70
2022/04/03 04:59:37;;;;;;;5.67;4.30;;;;;;;;;;6140664;28;20239;-71
2022/04/03 05:02:59;;;;;;;7.00;4.47;;;;;;;;;;6144792;28;20231;-70
2022/04/03 05:06:23;;;;;;;6.57;4.57;;;;;;;;;;6148487;28;20258;-71
2022/04/03 05:09:44;;;;;;;4.40;4.00;;;;;;;;;;6152564;28;20674;-72
2022/04/03 05:13:08;;;;;;;5.37;4.87;;;;;;;;;;6147738;28;20321;-72
2022/04/03 05:16:29;;;;;;;5.67;4.47;;;;;;;;;;6146098;28;20234;-71
2022/04/03 05:19:50;;;;;;;10.43;5.33;;;;;;;;;;6143801;28;21569;-71
2022/04/03 05:23:12;;;;;;;6.40;5.13;;;;;;;;;;6144319;28;20234;-70
2022/04/03 05:26:33;;;;;;;6.47;4.10;;;;;;;;;;6141276;28;20336;-70
2022/04/03 05:29:55;;;;;;;5.03;4.50;;;;;;;;;;6140226;28;20246;-70
2022/04/03 05:33:16;;;;;;;4.80;4.37;;;;;;;;;;6140307;28;22829;-71
2022/04/03 05:36:37;;;;;;;5.47;4.33;;;;;;;;;;6139816;28;20541;-70
2022/04/03 05:39:59;;;;;;;9.70;5.10;;;;;;;;;;6141259;28;20242;-71
2022/04/03 05:43:20;;;;;;;7.53;4.87;;;;;;;;;;6138904;28;20231;-71
2022/04/03 05:46:41;;;;;;;5.80;4.20;;;;;;;;;;6134438;28;20230;-71
2022/04/03 05:50:02;;;;;;;4.77;4.27;;;;;;;;;;6143533;28;20232;-71
2022/04/03 05:53:23;;;;;;;7.23;5.50;;;;;;;;;;6141376;28;20235;-71
2022/04/03 05:56:46;;;;;;;7.93;4.10;;;;;;;;;;6146026;28;20231;-71
2022/04/03 06:00:12;;;;;;;8.60;5.83;;;;;;;;;;6150452;28;20234;-70
2022/04/03 06:03:33;;;;;;;4.77;4.20;;;;;;;;;;6134963;28;20238;-70
2022/04/03 06:06:54;;;;;;;8.60;4.70;;;;;;;;;;6144026;28;20691;-72
2022/04/03 06:10:16;;;;;;;4.50;4.00;;;;;;;;;;6146223;28;20238;-71
2022/04/03 06:13:38;;;;;;;5.93;3.77;;;;;;;;;;6145212;28;20231;-71
2022/04/03 06:16:58;;;;;;;5.33;4.47;;;;;;;;;;6140303;28;20234;-70
2022/04/03 06:20:19;;;;;;;6.23;4.23;;;;;;;;;;6141259;28;20235;-70
2022/04/03 06:23:40;;;;;;;5.90;3.57;;;;;;;;;;6143236;28;20230;-71
2022/04/03 06:27:01;;;;;;;4.73;4.23;;;;;;;;;;6145818;28;21082;-71
2022/04/03 06:30:24;;;;;;;5.70;3.73;;;;;;;;;;6151163;28;20258;-70
2022/04/03 06:33:46;;;;;;;3.80;3.50;;;;;;;;;;6153992;28;20238;-72
2022/04/03 06:37:06;;;;;;;7.03;5.03;;;;;;;;;;6146618;28;20258;-70
2022/04/03 06:40:27;;;;;;;6.97;5.33;;;;;;;;;;6142906;28;20317;-72
2022/04/03 06:43:48;;;;;;;4.37;3.93;;;;;;;;;;6148813;28;20234;-73
2022/04/03 06:47:10;;;;;;;5.87;3.80;;;;;;;;;;6145163;28;20375;-71
2022/04/03 06:50:31;;;;;;;5.40;4.13;;;;;;;;;;6146684;28;20247;-69
2022/04/03 06:53:52;;;;;;;4.97;3.77;;;;;;;;;;6147439;28;20238;-72
2022/04/03 06:57:14;;;;;;;6.40;3.83;;;;;;;;;;6147626;28;20241;-72
2022/04/03 07:00:37;;;;;;;5.97;4.03;;;;;;;;;;6137698;28;20693;-76
2022/04/03 07:03:59;;;;;;;5.50;3.57;;;;;;;;;;6147378;28;20525;-74
2022/04/03 07:07:23;;;;;;;4.47;3.33;;;;;;;;;;6157279;28;20237;-75
2022/04/03 07:10:44;;;;;;;4.33;3.57;;;;;;;;;;6152287;28;20623;-74
2022/04/03 07:14:05;;;;;;;5.03;3.93;;;;;;;;;;6160153;28;20234;-72
2022/04/03 07:17:27;;;;;;;4.80;4.23;;;;;;;;;;6148753;28;20817;-73
2022/04/03 07:20:49;;;;;;;5.10;3.93;;;;;;;;;;6152529;28;20246;-75
2022/04/03 07:24:09;;;;;;;3.83;3.30;;;;;;;;;;6157698;28;21434;-73
2022/04/03 07:27:30;;;;;;;4.50;3.70;;;;;;;;;;6154342;28;20261;-75
2022/04/03 07:30:52;;;;;;;4.40;4.00;;;;;;;;;;6162342;28;20226;-75
2022/04/03 07:34:12;;;;;;;5.53;4.27;;;;;;;;;;6149209;28;20226;-73
2022/04/03 07:37:35;;;;;;;4.47;3.70;;;;;;;;;;6148982;28;20226;-71
2022/04/03 07:40:56;;;;;;;5.27;4.13;;;;;;;;;;6157266;28;20603;-74
2022/04/03 07:44:17;;;;;;;4.80;3.40;;;;;;;;;;6155641;28;20329;-70
2022/04/03 07:47:45;;;;;;;4.33;3.80;;;;;;;;;;6150298;28;20231;-74
2022/04/03 07:51:06;;;;;;;5.80;5.20;;;;;;;;;;6153998;28;20238;-73
2022/04/03 07:54:29;;;;;;;5.70;4.20;;;;;;;;;;6156599;28;20231;-71
2022/04/03 07:57:50;;;;;;;5.63;4.50;;;;;;;;;;6156669;28;20242;-73
2022/04/03 08:01:11;;;;;;;5.73;5.33;;;;;;;;;;6146737;28;20627;-73
2022/04/03 08:04:31;;;;;;;5.60;5.03;;;;;;;;;;6150803;28;20238;-73
2022/04/03 08:07:52;;;;;;;5.77;5.10;;;;;;;;;;6152035;28;20234;-73
2022/04/03 08:11:14;;;;;;;5.10;4.20;;;;;;;;;;6150133;28;20266;-73
2022/04/03 08:14:35;;;;;;;6.13;4.93;;;;;;;;;;6140985;28;20262;-73
2022/04/03 08:17:56;;;;;;;4.87;4.47;;;;;;;;;;6152780;28;20223;-73
2022/04/03 08:21:18;;;;;;;4.23;3.87;;;;;;;;;;6156373;28;20235;-73
2022/04/03 08:24:39;;;;;;;6.50;5.10;;;;;;;;;;6160011;28;20242;-73
2022/04/03 08:28:01;;;;;;;6.50;4.30;;;;;;;;;;6153096;28;20231;-72
2022/04/03 08:31:23;;;;;;;5.47;4.53;;;;;;;;;;6152477;28;20238;-73
2022/04/03 08:34:44;;;;;;;7.70;4.47;;;;;;;;;;6157248;28;20234;-73
2022/04/03 08:38:05;;;;;;;5.10;4.60;;;;;;;;;;6156208;28;20234;-74
2022/04/03 08:41:28;;;;;;;5.57;4.10;;;;;;;;;;6148393;28;20243;-72
2022/04/03 08:44:50;;;;;;;5.03;4.53;;;;;;;;;;6142805;28;20760;-72
2022/04/03 08:48:12;;;;;;;4.40;4.10;;;;;;;;;;6138260;28;20259;-73
2022/04/03 08:51:37;;;;;;;4.30;3.90;;;;;;;;;;6146895;28;20817;-73
2022/04/03 08:54:59;;;;;;;3.47;3.17;;;;;;;;;;6149315;28;20238;-73
2022/04/03 08:58:20;;;;;;;3.17;2.90;;;;;;;;;;6141525;28;20255;-74
2022/04/03 09:01:43;;;;;;;4.80;4.27;;;;;;;;;;6144458;28;20226;-71
2022/04/03 09:05:05;;;;;;;74.37;68.13;;;;;;;;;;6147073;28;20318;-71
2022/04/03 09:08:36;;;;;;;42.47;38.70;;;;;;;;;;6133534;28;20621;-74
2022/04/03 09:12:10;;;;;;;25.07;21.20;;;;;;;;;;6148273;28;20313;-70
2022/04/03 09:15:32;;;;;;;25.20;23.00;;;;;;;;;;6132770;28;20797;-73
2022/04/03 09:18:54;;;;;;;19.60;17.77;;;;;;;;;;6147816;28;20226;-74
2022/04/03 09:22:15;;;;;;;6.87;4.30;;;;;;;;;;6151161;28;20235;-75
2022/04/03 09:25:37;;;;;;;4.10;3.63;;;;;;;;;;6150431;28;20564;-74
2022/04/03 09:29:11;;;;;;;4.20;3.80;;;;;;;;;;6138092;28;20227;-72
2022/04/03 09:32:33;;;;;;;5.67;4.53;;;;;;;;;;6119271;28;20231;-73
2022/04/03 09:35:58;;;;;;;4.07;3.37;;;;;;;;;;6134064;28;20235;-72
2022/04/03 09:39:24;;;;;;;4.67;3.50;;;;;;;;;;6134682;28;20242;-74
2022/04/03 09:42:45;;;;;;;4.63;3.30;;;;;;;;;;6132866;28;20239;-73
2022/04/03 09:46:07;;;;;;;3.57;3.10;;;;;;;;;;6127265;28;20239;-73
2022/04/03 09:49:27;;;;;;;4.90;2.80;;;;;;;;;;6123909;28;20250;-75
2022/04/03 09:52:54;;;;;;;4.07;3.20;;;;;;;;;;6106595;28;20231;-73
2022/04/03 09:56:26;;;;;;;3.43;2.57;;;;;;;;;;6120232;28;20234;-73
2022/04/03 09:59:49;;;;;;;7.63;3.97;;;;;;;;;;6129949;28;20313;-72
2022/04/03 10:03:11;;;;;;;7.70;4.40;;;;;;;;;;6138834;28;20566;-72
2022/04/03 10:06:33;;;;;;;6.30;3.00;;;;;;;;;;6138225;28;20234;-73
2022/04/03 10:09:55;;;;;;;3.03;1.53;;;;;;;;;;6138868;28;20234;-73
2022/04/03 10:13:17;;;;;;;6.70;2.03;;;;;;;;;;6141105;28;20307;-73
2022/04/03 10:16:38;;;;;;;4.27;1.70;;;;;;;;;;6144815;28;20230;-74
2022/04/03 10:19:59;;;;;;;3.17;1.97;;;;;;;;;;6148302;28;20736;-75
2022/04/03 10:23:20;;;;;;;4.93;2.67;;;;;;;;;;6150331;28;20243;-74
2022/04/03 10:26:47;;;;;;;2.87;1.80;;;;;;;;;;6149721;28;20231;-73
2022/04/03 10:30:10;;;;;;;3.07;2.10;;;;;;;;;;6164094;28;20532;-72
2022/04/03 10:33:38;;;;;;;2.90;1.33;;;;;;;;;;6148717;28;20707;-73
2022/04/03 10:36:59;;;;;;;6.90;2.27;;;;;;;;;;6148277;28;20231;-73
2022/04/03 10:40:20;;;;;;;3.13;1.73;;;;;;;;;;6149117;28;20321;-73
2022/04/03 10:43:43;;;;;;;3.40;1.73;;;;;;;;;;6150588;28;20382;-74
2022/04/03 10:47:18;;;;;;;4.07;1.53;;;;;;;;;;6145418;28;20235;-72
2022/04/03 10:50:58;;;;;;;5.27;1.50;;;;;;;;;;6131590;28;20238;-71
2022/04/03 10:54:30;;;;;;;1.57;1.40;;;;;;;;;;6144951;28;20234;-71
2022/04/03 10:57:52;;;;;;;3.60;1.97;;;;;;;;;;6146330;28;20321;-71
2022/04/03 11:01:27;;;;;;;2.93;1.67;;;;;;;;;;6145531;28;20238;-71
2022/04/03 11:04:48;;;;;;;2.37;1.33;;;;;;;;;;6145348;28;20227;-69
2022/04/03 11:08:17;;;;;;;1.70;1.40;;;;;;;;;;6147492;28;20310;-71
2022/04/03 11:11:54;;;;;;;1.63;1.00;;;;;;;;;;6149436;28;20282;-71
2022/04/03 11:15:15;;;;;;;4.77;2.53;;;;;;;;;;6147846;28;20243;-71
2022/04/03 11:18:39;;;;;;;4.70;2.67;;;;;;;;;;6148911;28;20359;-71
2022/04/03 11:22:00;;;;;;;1.73;1.23;;;;;;;;;;6148666;28;20238;-70
2022/04/03 11:25:22;;;;;;;1.63;1.23;;;;;;;;;;6150869;28;20786;-71
2022/04/03 11:28:43;;;;;;;2.27;1.27;;;;;;;;;;6142571;28;20231;-71
2022/04/03 11:32:07;;;;;;;2.57;1.40;;;;;;;;;;6151490;28;20504;-71
2022/04/03 11:35:39;;;;;;;1.90;1.20;;;;;;;;;;6128489;28;20234;-71
2022/04/03 11:39:01;;;;;;;1.92;0.90;;;;;;;;;;6145725;28;20754;-71
2022/04/03 11:42:24;;;;;;;3.40;1.20;;;;;;;;;;6122058;28;20234;-71
2022/04/03 11:45:55;;;;;;;1.73;0.85;;;;;;;;;;6147654;28;20238;-72
2022/04/03 11:49:18;;;;;;;1.23;0.90;;;;;;;;;;6146249;28;20235;-71
2022/04/03 11:52:41;;;;;;;1.52;1.00;;;;;;;;;;6141941;28;20226;-71
2022/04/03 11:56:09;;;;;;;1.67;1.20;;;;;;;;;;6146956;28;22171;-69
2022/04/03 11:59:33;;;;;;;2.10;1.40;;;;;;;;;;6148744;28;20238;-68
2022/04/03 12:02:58;;;;;;;2.47;1.23;;;;;;;;;;6145443;28;20230;-68
2022/04/03 12:06:19;;;;;;;4.25;1.08;;;;;;;;;;6145204;28;20230;-69
2022/04/03 12:09:42;;;;;;;3.27;1.07;;;;;;;;;;6141674;28;20238;-69
2022/04/03 12:13:05;;;;;;;1.70;1.00;;;;;;;;;;6153252;28;20250;-69
2022/04/03 12:16:27;;;;;;;1.70;0.90;;;;;;;;;;6155241;28;20237;-69
2022/04/03 12:19:49;;;;;;;1.60;1.20;;;;;;;;;;6160722;28;20249;-69
2022/04/03 12:23:10;;;;;;;4.10;1.10;;;;;;;;;;6162216;28;23300;-69
2022/04/03 12:26:33;;;;;;;1.10;1.00;;;;;;;;;;6152375;28;20326;-69
2022/04/03 12:29:55;;;;;;;1.57;0.90;;;;;;;;;;6154791;28;20242;-69
2022/04/03 12:33:16;;;;;;;2.07;1.30;;;;;;;;;;6148947;28;20234;-69
2022/04/03 12:36:49;;;;;;;1.13;0.73;;;;;;;;;;6146603;28;20226;-69
2022/04/03 12:40:11;;;;;;;2.67;0.97;;;;;;;;;;6148115;28;20245;-69
2022/04/03 12:43:44;;;;;;;2.00;1.23;;;;;;;;;;6146891;28;20238;-69
2022/04/03 12:47:12;;;;;;;2.80;1.20;;;;;;;;;;6142701;28;20325;-69
2022/04/03 12:50:38;;;;;;;1.47;0.80;;;;;;;;;;6149227;28;20231;-69
2022/04/03 12:53:59;;;;;;;4.97;1.37;;;;;;;;;;6138797;28;20238;-69
2022/04/03 13:01:09;;;;;;;5.13;1.23;;;;;;;;;;6145501;28;20242;-68
2022/04/03 13:04:31;;;;;;;4.03;1.27;;;;;;;;;;6144740;28;20726;-69
2022/04/03 13:07:52;;;;;;;6.53;2.13;;;;;;;;;;6149092;28;20247;-68
2022/04/03 13:11:25;;;;;;;2.80;1.53;;;;;;;;;;6145219;28;20234;-69
2022/04/03 13:14:46;;;;;;;3.50;1.93;;;;;;;;;;6146601;28;20314;-69
2022/04/03 13:18:08;;;;;;;2.87;2.50;;;;;;;;;;6143625;28;20325;-68
2022/04/03 13:21:29;;;;;;;2.30;1.50;;;;;;;;;;6144118;28;20236;-69
2022/04/03 13:24:50;;;;;;;1.60;1.23;;;;;;;;;;6140815;28;20247;-69
2022/04/03 13:28:11;;;;;;;1.17;0.70;;;;;;;;;;6142816;28;20259;-69
2022/04/03 13:31:32;;;;;;;1.80;0.80;;;;;;;;;;6141285;28;20256;-70
2022/04/03 13:34:55;;;;;;;1.53;0.70;;;;;;;;;;6146192;28;20597;-69
2022/04/03 13:38:16;;;;;;;2.10;0.90;;;;;;;;;;6139183;28;20234;-68
2022/04/03 13:41:38;;;;;;;2.37;1.20;;;;;;;;;;6138080;28;20675;-69
2022/04/03 13:44:59;;;;;;;2.23;0.90;;;;;;;;;;6150670;28;20238;-69
2022/04/03 13:48:20;;;;;;;1.30;0.70;;;;;;;;;;6142792;28;20230;-69
2022/04/03 13:51:42;;;;;;;1.67;1.10;;;;;;;;;;6130669;28;20830;-69
2022/04/03 13:55:03;;;;;;;1.70;0.70;;;;;;;;;;6144763;28;20303;-68
2022/04/03 13:58:26;;;;;;;1.60;0.90;;;;;;;;;;6134107;28;20254;-69
2022/04/03 14:01:47;;;;;;;2.00;1.07;;;;;;;;;;6147560;28;20231;-70
2022/04/03 14:05:09;;;;;;;1.63;0.70;;;;;;;;;;6146989;28;20361;-71
2022/04/03 14:08:33;;;;;;;4.13;1.17;;;;;;;;;;6146152;28;20759;-71
2022/04/03 14:11:54;;;;;;;2.00;0.90;;;;;;;;;;6146815;28;20566;-71
2022/04/03 14:15:15;;;;;;;1.33;0.77;;;;;;;;;;6143129;28;20802;-71
2022/04/03 14:18:36;;;;;;;1.53;1.00;;;;;;;;;;6154252;28;20234;-72
2022/04/03 14:21:59;;;;;;;2.80;0.73;;;;;;;;;;6158302;28;20226;-73
2022/04/03 14:25:21;;;;;;;2.13;1.10;;;;;;;;;;6162126;28;20302;-71
2022/04/03 14:28:43;;;;;;;2.83;1.27;;;;;;;;;;6151972;28;20239;-71
2022/04/03 14:32:05;;;;;;;1.43;1.00;;;;;;;;;;6147442;28;20234;-71
2022/04/03 14:35:26;;;;;;;2.80;1.40;;;;;;;;;;6147492;28;20231;-69
2022/04/03 14:38:47;;;;;;;1.30;1.20;;;;;;;;;;6148290;28;20234;-69
2022/04/03 14:42:09;;;;;;;5.07;2.30;;;;;;;;;;6145897;28;20230;-70
2022/04/03 14:45:31;;;;;;;3.13;1.70;;;;;;;;;;6145860;28;20349;-71
2022/04/03 14:48:52;;;;;;;4.20;2.60;;;;;;;;;;6142096;28;20515;-70
2022/04/03 14:52:13;;;;;;;1.33;1.00;;;;;;;;;;6138973;28;20241;-70
2022/04/03 14:55:33;;;;;;;1.47;0.63;;;;;;;;;;6133218;28;20317;-71
2022/04/03 14:58:57;;;;;;;2.40;0.77;;;;;;;;;;6136855;28;20600;-70
2022/04/03 15:02:17;;;;;;;1.73;1.00;;;;;;;;;;6135872;28;20243;-70
2022/04/03 15:05:39;;;;;;;1.77;0.90;;;;;;;;;;6122704;28;20227;-70
2022/04/03 15:09:00;;;;;;;1.37;0.70;;;;;;;;;;6138845;28;21970;-70
2022/04/03 15:12:21;;;;;;;1.53;0.97;;;;;;;;;;6142859;28;20235;-70
2022/04/03 15:15:43;;;;;;;0.93;0.80;;;;;;;;;;6143455;28;20231;-70
2022/04/03 15:19:04;;;;;;;2.67;1.23;;;;;;;;;;6145990;28;20238;-70
2022/04/03 15:22:25;;;;;;;1.80;0.60;;;;;;;;;;6148252;28;20380;-70
2022/04/03 15:25:48;;;;;;;2.43;1.07;;;;;;;;;;6139931;28;20777;-70
2022/04/03 15:29:09;;;;;;;1.13;1.00;;;;;;;;;;6139306;28;20231;-70
2022/04/03 15:32:31;;;;;;;3.80;1.47;;;;;;;;;;6141460;28;20508;-70
2022/04/03 15:35:52;;;;;;;2.13;1.23;;;;;;;;;;6143930;28;20230;-70
2022/04/03 15:39:13;;;;;;;2.30;0.80;;;;;;;;;;6145489;28;20232;-70
2022/04/03 15:42:36;;;;;;;3.80;1.47;;;;;;;;;;6151789;28;20369;-70
2022/04/03 15:45:56;;;;;;;2.13;0.60;;;;;;;;;;6146323;28;20222;-70
2022/04/03 15:49:18;;;;;;;1.57;0.87;;;;;;;;;;6147485;28;20230;-70
2022/04/03 15:52:40;;;;;;;3.33;1.20;;;;;;;;;;6149661;28;20239;-73
2022/04/03 15:56:00;;;;;;;7.20;4.20;;;;;;;;;;6161387;28;20321;-71
2022/04/03 15:59:21;;;;;;;5.23;3.13;;;;;;;;;;6153532;28;20299;-71
2022/04/03 16:02:42;;;;;;;3.63;1.60;;;;;;;;;;6163585;28;20230;-71
2022/04/03 16:06:05;;;;;;;4.50;1.97;;;;;;;;;;6160610;28;20238;-67
2022/04/03 16:09:26;;;;;;;1.93;1.57;;;;;;;;;;6159934;28;20226;-67
2022/04/03 16:12:46;;;;;;;2.23;1.30;;;;;;;;;;6161060;28;20317;-67
2022/04/03 16:16:08;;;;;;;1.40;1.20;;;;;;;;;;6155535;28;20230;-67
2022/04/03 16:19:29;;;;;;;4.07;2.10;;;;;;;;;;6155818;28;20628;-67
2022/04/03 16:22:51;;;;;;;2.83;1.33;;;;;;;;;;6159362;28;20231;-67
2022/04/03 16:26:12;;;;;;;4.77;1.40;;;;;;;;;;6164746;28;20310;-67
2022/04/03 16:29:34;;;;;;;4.60;2.17;;;;;;;;;;6158202;28;20227;-66
2022/04/03 16:32:54;;;;;;;4.13;2.20;;;;;;;;;;6163926;28;20314;-66
2022/04/03 16:36:15;;;;;;;3.20;1.20;;;;;;;;;;6159701;28;20238;-67
2022/04/03 16:39:37;;;;;;;3.13;1.50;;;;;;;;;;6159513;28;20234;-67
2022/04/03 16:42:58;;;;;;;2.57;1.80;;;;;;;;;;6151318;28;20668;-65
2022/04/03 16:46:19;;;;;;;2.53;1.50;;;;;;;;;;6156786;28;20258;-68
2022/04/03 16:49:40;;;;;;;4.73;1.77;;;;;;;;;;6150442;28;20230;-65
2022/04/03 16:53:01;;;;;;;1.83;1.20;;;;;;;;;;6138639;28;20250;-69
2022/04/03 16:56:23;;;;;;;3.47;1.87;;;;;;;;;;6147904;28;20640;-73
2022/04/03 16:59:48;;;;;;;4.93;2.00;;;;;;;;;;6138876;28;20231;-75
2022/04/03 17:03:09;;;;;;;1.93;1.50;;;;;;;;;;6155360;28;20262;-74
2022/04/03 17:06:30;;;;;;;3.60;1.70;;;;;;;;;;6155973;28;20238;-74
2022/04/03 17:09:51;;;;;;;2.87;1.87;;;;;;;;;;6140451;28;20234;-75
2022/04/03 17:13:14;;;;;;;3.07;1.93;;;;;;;;;;6161624;28;20502;-73
2022/04/03 17:16:35;;;;;;;3.03;1.87;;;;;;;;;;6150850;28;20226;-76
2022/04/03 17:19:56;;;;;;;2.30;1.90;;;;;;;;;;6149737;28;20610;-74
2022/04/03 17:23:17;;;;;;;3.27;2.30;;;;;;;;;;6151792;28;20242;-72
2022/04/03 17:26:38;;;;;;;2.80;1.83;;;;;;;;;;6149586;28;20234;-73
2022/04/03 17:30:01;;;;;;;3.20;2.10;;;;;;;;;;6139769;28;20230;-69
2022/04/03 17:33:21;;;;;;;3.87;2.80;;;;;;;;;;6148423;28;20246;-71
2022/04/03 17:36:42;;;;;;;4.07;2.33;;;;;;;;;;6152760;28;20237;-74
2022/04/03 17:40:06;;;;;;;3.77;2.17;;;;;;;;;;6147178;28;20231;-73
2022/04/03 17:43:28;;;;;;;2.70;2.03;;;;;;;;;;6149115;28;20673;-72
2022/04/03 17:46:52;;;;;;;5.73;1.83;;;;;;;;;;6158673;28;20242;-73
2022/04/03 17:50:13;;;;;;;2.73;2.00;;;;;;;;;;6154765;28;20226;-72
2022/04/03 17:53:34;;;;;;;7.17;2.23;;;;;;;;;;6148990;28;20238;-73
2022/04/03 17:56:55;;;;;;;2.90;1.87;;;;;;;;;;6163148;28;20238;-73
2022/04/03 18:00:16;;;;;;;5.33;2.50;;;;;;;;;;6165284;28;20245;-72
2022/04/03 18:03:38;;;;;;;5.30;2.30;;;;;;;;;;6167367;28;20266;-73
2022/04/03 18:07:00;;;;;;;6.30;2.53;;;;;;;;;;6158797;28;20641;-73
2022/04/03 18:10:21;;;;;;;3.83;1.93;;;;;;;;;;6158421;28;20321;-72
2022/04/03 18:13:44;;;;;;;5.73;2.07;;;;;;;;;;6161514;28;20310;-73
2022/04/03 18:17:06;;;;;;;5.23;2.70;;;;;;;;;;6156540;28;20860;-73
2022/04/03 18:20:29;;;;;;;4.90;1.97;;;;;;;;;;6152078;28;20234;-72
2022/04/03 18:23:50;;;;;;;4.80;2.60;;;;;;;;;;6147570;28;20230;-74
2022/04/03 18:27:11;;;;;;;7.77;2.67;;;;;;;;;;6144437;28;20245;-73
2022/04/03 18:30:32;;;;;;;5.20;2.80;;;;;;;;;;6157087;28;20242;-74
2022/04/03 18:33:55;;;;;;;4.30;2.47;;;;;;;;;;6145657;28;21819;-72
2022/04/03 18:37:18;;;;;;;6.23;2.80;;;;;;;;;;6138439;28;20223;-69
2022/04/03 18:40:39;;;;;;;4.90;2.53;;;;;;;;;;6150457;28;20238;-70
2022/04/03 18:44:00;;;;;;;6.07;2.73;;;;;;;;;;6146472;28;20354;-67
2022/04/03 18:47:21;;;;;;;4.17;1.80;;;;;;;;;;6150924;28;20238;-70
2022/04/03 18:50:42;;;;;;;5.87;2.17;;;;;;;;;;6149395;28;20223;-69
2022/04/03 18:54:05;;;;;;;7.30;3.60;;;;;;;;;;6150788;28;20977;-69
2022/04/03 18:57:28;;;;;;;3.20;1.70;;;;;;;;;;6145960;28;20249;-71
2022/04/03 19:00:49;;;;;;;2.90;1.87;;;;;;;;;;6144362;28;20318;-69
2022/04/03 19:04:10;;;;;;;2.30;1.70;;;;;;;;;;6149466;28;20648;-64
2022/04/03 19:07:31;;;;;;;5.67;2.10;;;;;;;;;;6136282;28;20238;-63
2022/04/03 19:10:54;;;;;;;17.13;3.20;;;;;;;;;;6134831;28;20871;-63
2022/04/03 19:14:16;;;;;;;2.07;1.60;;;;;;;;;;6139031;28;20234;-67
2022/04/03 19:17:37;;;;;;;2.90;1.70;;;;;;;;;;6139518;28;20231;-65
2022/04/03 19:20:58;;;;;;;3.10;2.73;;;;;;;;;;6139754;28;20652;-65
2022/04/03 19:24:19;;;;;;;4.87;2.13;;;;;;;;;;6137863;28;20345;-64
2022/04/03 19:27:41;;;;;;;4.27;3.57;;;;;;;;;;6136671;28;20227;-65
2022/04/03 19:31:02;;;;;;;3.67;2.50;;;;;;;;;;6133720;28;20230;-67
2022/04/03 19:34:24;;;;;;;5.67;2.47;;;;;;;;;;6131599;28;20223;-73
2022/04/03 19:37:45;;;;;;;6.27;2.47;;;;;;;;;;6142278;28;20313;-72
2022/04/03 19:41:06;;;;;;;3.70;2.20;;;;;;;;;;6140137;28;20258;-74
2022/04/03 19:44:29;;;;;;;5.80;2.70;;;;;;;;;;6143047;28;20234;-73
2022/04/03 19:47:49;;;;;;;4.43;2.10;;;;;;;;;;6145894;28;20241;-73
2022/04/03 19:51:10;;;;;;;4.37;2.10;;;;;;;;;;6135980;28;20227;-74
2022/04/03 19:54:31;;;;;;;4.80;2.77;;;;;;;;;;6141747;28;20246;-75
2022/04/03 19:57:54;;;;;;;3.73;2.73;;;;;;;;;;6129356;28;20255;-73
2022/04/03 20:01:17;;;;;;;3.97;2.63;;;;;;;;;;6143800;28;20231;-72
2022/04/03 20:04:37;;;;;;;3.20;2.13;;;;;;;;;;6146967;28;20652;-72
2022/04/03 20:07:58;;;;;;;7.57;2.40;;;;;;;;;;6144980;28;20226;-74
2022/04/03 20:11:19;;;;;;;6.40;2.60;;;;;;;;;;6147798;28;20239;-72
2022/04/03 20:14:44;;;;;;;3.13;2.47;;;;;;;;;;6151903;28;20219;-72